createdAt,value
2018-04-17T00:01:49.797Z,13.37
2018-04-17T00:04:15.662Z,13.23
2018-04-17T00:06:41.580Z,11.93
2018-04-17T00:09:07.453Z,12.23
2018-04-17T00:11:33.316Z,12.13
2018-04-17T00:13:59.178Z,11.83
2018-04-17T00:16:25.061Z,13.73
2018-04-17T00:18:50.929Z,12.87
2018-04-17T00:21:16.836Z,14.23
2018-04-17T00:23:42.702Z,13.10
2018-04-17T00:26:08.594Z,14.30
2018-04-17T00:28:34.508Z,15.97
2018-04-17T00:31:00.392Z,14.53
2018-04-17T00:33:26.294Z,13.40
2018-04-17T00:35:52.161Z,13.60
2018-04-17T00:38:18.073Z,14.73
2018-04-17T00:40:43.952Z,14.57
2018-04-17T00:43:09.843Z,13.20
2018-04-17T00:45:35.724Z,12.93
2018-04-17T00:48:01.592Z,14.43
2018-04-17T00:50:27.507Z,14.47
2018-04-17T00:52:53.388Z,14.43
2018-04-17T00:55:19.269Z,14.73
2018-04-17T00:57:45.125Z,15.43
2018-04-17T01:00:11.066Z,14.80
2018-04-17T01:02:36.922Z,14.17
2018-04-17T01:05:03.908Z,13.83
2018-04-17T01:07:29.766Z,15.47
2018-04-17T01:09:55.629Z,13.00
2018-04-17T01:12:21.498Z,12.53
2018-04-17T01:14:47.357Z,12.87
2018-04-17T01:17:13.232Z,15.60
2018-04-17T01:19:39.089Z,13.90
2018-04-17T01:22:04.997Z,14.10
2018-04-17T01:24:30.862Z,13.40
2018-04-17T01:26:56.743Z,11.67
2018-04-17T01:29:22.606Z,12.70
2018-04-17T01:31:48.481Z,10.90
2018-04-17T01:34:14.345Z,12.47
2018-04-17T01:36:40.487Z,11.50
2018-04-17T01:39:06.359Z,11.40
2018-04-17T01:41:32.232Z,13.90
2018-04-17T01:43:58.109Z,15.47
2018-04-17T01:46:23.992Z,13.40
2018-04-17T01:48:49.861Z,12.90
2018-04-17T01:51:15.698Z,13.57
2018-04-17T01:53:41.582Z,13.53
2018-04-17T01:56:07.428Z,12.83
2018-04-17T01:58:33.292Z,14.20
2018-04-17T02:00:59.157Z,13.60
2018-04-17T02:03:25.054Z,13.00
2018-04-17T02:05:50.953Z,15.10
2018-04-17T02:08:16.818Z,12.70
2018-04-17T02:10:42.806Z,11.80
2018-04-17T02:13:08.680Z,12.47
2018-04-17T02:15:34.557Z,13.67
2018-04-17T02:18:00.444Z,13.50
2018-04-17T02:20:26.341Z,15.20
2018-04-17T02:22:52.197Z,15.00
2018-04-17T02:25:18.101Z,17.23
2018-04-17T02:27:43.972Z,16.33
2018-04-17T02:30:09.833Z,14.20
2018-04-17T02:32:35.712Z,15.17
2018-04-17T02:35:01.570Z,14.90
2018-04-17T02:37:27.482Z,15.13
2018-04-17T02:39:53.399Z,15.70
2018-04-17T02:42:19.245Z,14.53
2018-04-17T02:44:45.102Z,16.33
2018-04-17T02:47:10.987Z,13.97
2018-04-17T02:49:36.827Z,15.23
2018-04-17T02:52:02.700Z,17.40
2018-04-17T02:54:28.557Z,15.43
2018-04-17T02:56:54.422Z,14.60
2018-04-17T02:59:20.283Z,15.23
2018-04-17T03:01:46.221Z,14.70
2018-04-17T03:04:12.101Z,14.20
2018-04-17T03:06:38.295Z,14.20
2018-04-17T03:09:04.217Z,14.93
2018-04-17T03:11:30.085Z,13.90
2018-04-17T03:13:55.987Z,17.17
2018-04-17T03:16:21.849Z,14.37
2018-04-17T03:18:47.717Z,14.97
2018-04-17T03:21:13.594Z,12.80
2018-04-17T03:23:39.476Z,12.10
2018-04-17T03:26:05.372Z,12.60
2018-04-17T03:28:31.229Z,13.73
2018-04-17T03:30:57.090Z,14.10
2018-04-17T03:33:22.979Z,13.00
2018-04-17T03:35:48.874Z,14.23
2018-04-17T03:38:14.765Z,14.93
2018-04-17T03:40:40.651Z,13.30
2018-04-17T03:43:06.570Z,14.73
2018-04-17T03:45:32.478Z,12.77
2018-04-17T03:47:58.373Z,11.60
2018-04-17T03:50:24.278Z,10.90
2018-04-17T03:52:50.217Z,11.67
2018-04-17T03:55:16.107Z,13.87
2018-04-17T03:57:42.009Z,11.83
2018-04-17T04:00:07.897Z,13.20
2018-04-17T04:02:33.778Z,13.57
2018-04-17T04:04:59.655Z,16.07
2018-04-17T04:07:25.582Z,15.27
2018-04-17T04:09:51.445Z,15.30
2018-04-17T04:12:17.327Z,13.87
2018-04-17T04:14:43.349Z,13.70
2018-04-17T04:17:21.681Z,14.50
2018-04-17T04:19:59.796Z,13.13
2018-04-17T04:22:37.852Z,13.03
2018-04-17T04:28:05.358Z,12.10
2018-04-17T04:30:31.239Z,13.00
2018-04-17T04:32:57.122Z,12.33
2018-04-17T04:35:22.985Z,14.10
2018-04-17T04:37:48.859Z,12.80
2018-04-17T04:40:14.748Z,12.00
2018-04-17T04:42:40.593Z,13.33
2018-04-17T04:45:06.491Z,14.03
2018-04-17T04:47:32.345Z,18.13
2018-04-17T04:49:58.273Z,15.67
2018-04-17T04:52:24.177Z,15.20
2018-04-17T04:54:50.041Z,14.03
2018-04-17T04:57:15.920Z,13.60
2018-04-17T04:59:41.777Z,13.27
2018-04-17T05:02:07.657Z,13.03
2018-04-17T05:04:33.515Z,13.00
2018-04-17T05:06:59.413Z,12.07
2018-04-17T05:09:25.237Z,11.63
2018-04-17T05:11:51.088Z,12.63
2018-04-17T05:14:16.955Z,16.07
2018-04-17T05:16:42.967Z,12.77
2018-04-17T05:19:08.813Z,12.73
2018-04-17T05:21:34.689Z,12.13
2018-04-17T05:24:00.562Z,10.80
2018-04-17T05:26:26.409Z,12.50
2018-04-17T05:28:52.280Z,12.20
2018-04-17T05:31:18.187Z,10.67
2018-04-17T05:33:44.065Z,11.27
2018-04-17T05:36:09.945Z,12.30
2018-04-17T05:38:35.864Z,12.03
2018-04-17T05:41:01.725Z,16.23
2018-04-17T05:43:27.634Z,15.97
2018-04-17T05:45:53.561Z,13.30
2018-04-17T05:48:19.452Z,12.47
2018-04-17T05:50:45.357Z,13.93
2018-04-17T05:53:11.230Z,14.13
2018-04-17T05:55:37.141Z,12.80
2018-04-17T05:58:02.991Z,12.87
2018-04-17T06:00:28.893Z,14.23
2018-04-17T06:02:54.745Z,13.17
2018-04-17T06:05:20.633Z,15.63
2018-04-17T06:07:46.500Z,13.40
2018-04-17T06:10:12.370Z,16.63
2018-04-17T06:12:38.240Z,14.47
2018-04-17T06:15:04.178Z,21.33
2018-04-17T06:17:30.068Z,16.47
2018-04-17T06:19:55.942Z,17.60
2018-04-17T06:22:21.818Z,15.93
2018-04-17T06:24:47.714Z,18.30
2018-04-17T06:27:13.601Z,18.07
2018-04-17T06:29:39.498Z,14.03
2018-04-17T06:32:05.356Z,14.63
2018-04-17T06:34:31.243Z,17.23
2018-04-17T06:36:57.090Z,16.50
2018-04-17T06:39:22.951Z,17.07
2018-04-17T06:41:48.937Z,16.67
2018-04-17T06:44:14.759Z,19.93
2018-04-17T06:46:40.614Z,20.50
2018-04-17T06:49:06.470Z,16.63
2018-04-17T06:51:32.338Z,20.20
2018-04-17T06:53:58.214Z,17.60
2018-04-17T06:56:24.092Z,19.33
2018-04-17T06:58:49.959Z,17.37
2018-04-17T07:01:15.790Z,19.17
2018-04-17T07:03:41.681Z,17.07
2018-04-17T07:06:07.545Z,18.93
2018-04-17T07:08:33.429Z,16.30
2018-04-17T07:10:59.308Z,16.30
2018-04-17T07:13:25.181Z,14.50
2018-04-17T07:15:51.040Z,16.33
2018-04-17T07:18:16.990Z,16.40
2018-04-17T07:20:42.833Z,18.70
2018-04-17T07:23:08.712Z,20.60
2018-04-17T07:25:34.573Z,18.57
2018-04-17T07:28:00.406Z,18.63
2018-04-17T07:30:26.294Z,16.53
2018-04-17T07:32:52.181Z,18.13
2018-04-17T07:35:18.073Z,16.17
2018-04-17T07:37:43.962Z,16.60
2018-04-17T07:40:09.825Z,16.00
2018-04-17T07:42:35.695Z,16.10
2018-04-17T07:45:01.591Z,14.87
2018-04-17T07:47:27.489Z,14.50
2018-04-17T07:49:53.378Z,14.60
2018-04-17T07:52:19.242Z,13.80
2018-04-17T07:54:45.089Z,14.30
2018-04-17T07:57:10.954Z,13.83
2018-04-17T07:59:36.790Z,12.50
2018-04-17T08:02:02.653Z,13.40
2018-04-17T08:04:28.509Z,13.50
2018-04-17T08:06:54.390Z,11.60
2018-04-17T08:09:20.261Z,12.70
2018-04-17T08:11:46.121Z,12.20
2018-04-17T08:14:11.995Z,11.73
2018-04-17T08:16:37.886Z,13.10
2018-04-17T08:19:03.785Z,14.40
2018-04-17T08:21:29.671Z,13.30
2018-04-17T08:23:55.545Z,14.67
2018-04-17T08:26:21.420Z,13.97
2018-04-17T08:28:47.266Z,13.60
2018-04-17T08:31:13.137Z,13.13
2018-04-17T08:33:39.042Z,12.87
2018-04-17T08:36:04.939Z,13.60
2018-04-17T08:38:30.782Z,13.70
2018-04-17T08:40:56.653Z,14.67
2018-04-17T08:43:22.517Z,16.47
2018-04-17T08:45:48.415Z,17.10
2018-04-17T08:48:14.280Z,17.90
2018-04-17T08:50:40.138Z,15.60
2018-04-17T08:53:06.016Z,16.03
2018-04-17T08:55:31.918Z,17.27
2018-04-17T08:57:57.804Z,15.23
2018-04-17T09:00:23.633Z,16.47
2018-04-17T09:02:49.524Z,15.60
2018-04-17T09:05:15.446Z,14.83
2018-04-17T09:07:48.302Z,14.97
2018-04-17T09:10:14.173Z,15.03
2018-04-17T09:12:40.096Z,15.90
2018-04-17T09:15:05.962Z,16.00
2018-04-17T09:17:31.853Z,14.33
2018-04-17T09:19:57.753Z,15.83
2018-04-17T09:22:23.617Z,14.10
2018-04-17T09:24:49.476Z,13.03
2018-04-17T09:27:15.360Z,13.13
2018-04-17T09:29:41.253Z,13.13
2018-04-17T09:32:07.125Z,13.20
2018-04-17T09:34:33.018Z,13.00
2018-04-17T09:36:58.898Z,12.33
2018-04-17T09:39:24.764Z,13.23
2018-04-17T09:41:50.664Z,11.97
2018-04-17T09:44:16.526Z,12.20
2018-04-17T09:46:42.461Z,11.93
2018-04-17T09:49:08.381Z,12.27
2018-04-17T09:51:34.210Z,14.23
2018-04-17T09:54:00.080Z,11.63
2018-04-17T09:56:25.964Z,10.43
2018-04-17T09:58:51.813Z,10.00
2018-04-17T10:01:17.698Z,10.53
2018-04-17T10:03:43.557Z,10.27
2018-04-17T10:06:09.425Z,9.00
2018-04-17T10:08:35.289Z,8.87
2018-04-17T10:11:01.143Z,8.00
2018-04-17T10:13:27.026Z,8.73
2018-04-17T10:15:52.861Z,9.07
2018-04-17T10:18:18.740Z,8.13
2018-04-17T10:20:44.734Z,6.37
2018-04-17T10:23:10.578Z,5.70
2018-04-17T10:25:36.453Z,6.83
2018-04-17T10:28:02.317Z,6.83
2018-04-17T10:30:28.166Z,6.37
2018-04-17T10:32:53.994Z,5.07
2018-04-17T10:35:19.834Z,5.50
2018-04-17T10:37:45.834Z,5.97
2018-04-17T10:40:11.722Z,4.73
2018-04-17T10:42:37.760Z,5.60
2018-04-17T10:45:04.600Z,8.13
2018-04-17T10:47:30.503Z,7.50
2018-04-17T10:49:56.377Z,6.80
2018-04-17T10:52:22.273Z,5.67
2018-04-17T10:54:48.118Z,5.70
2018-04-17T10:57:14.033Z,6.47
2018-04-17T10:59:39.878Z,5.23
2018-04-17T11:02:05.748Z,5.37
2018-04-17T11:04:31.612Z,4.70
2018-04-17T11:06:57.495Z,5.13
2018-04-17T11:09:23.386Z,4.00
2018-04-17T11:11:49.284Z,4.00
2018-04-17T11:14:15.142Z,3.87
2018-04-17T11:16:40.968Z,3.53
2018-04-17T11:19:06.834Z,4.00
2018-04-17T11:21:32.682Z,3.30
2018-04-17T11:23:58.550Z,2.93
2018-04-17T11:26:24.424Z,2.90
2018-04-17T11:28:50.292Z,2.73
2018-04-17T11:31:16.141Z,3.30
2018-04-17T11:33:42.037Z,3.27
2018-04-17T11:36:07.940Z,3.73
2018-04-17T11:38:33.806Z,3.77
2018-04-17T11:40:59.682Z,3.10
2018-04-17T11:43:25.533Z,3.50
2018-04-17T11:45:51.436Z,3.17
2018-04-17T11:48:17.293Z,3.50
2018-04-17T11:50:43.162Z,3.30
2018-04-17T11:53:09.036Z,3.13
2018-04-17T11:55:34.901Z,2.90
2018-04-17T11:58:00.757Z,2.57
2018-04-17T12:00:26.816Z,2.47
2018-04-17T12:02:52.738Z,2.60
2018-04-17T12:05:18.603Z,2.03
2018-04-17T12:07:44.508Z,3.10
2018-04-17T12:10:10.406Z,2.70
2018-04-17T12:12:36.281Z,2.07
2018-04-17T12:15:02.161Z,2.43
2018-04-17T12:17:28.002Z,2.80
2018-04-17T12:19:53.877Z,2.53
2018-04-17T12:22:19.713Z,2.37
2018-04-17T12:24:45.679Z,2.67
2018-04-17T12:27:11.538Z,1.90
2018-04-17T12:29:37.392Z,2.67
2018-04-17T12:32:03.301Z,2.00
2018-04-17T12:34:29.201Z,2.60
2018-04-17T12:39:27.562Z,2.77
2018-04-17T12:41:53.447Z,2.40
2018-04-17T12:44:19.306Z,2.40
2018-04-17T12:46:45.175Z,2.87
2018-04-17T12:49:11.025Z,2.40
2018-04-17T12:51:36.873Z,2.90
2018-04-17T12:54:02.751Z,3.17
2018-04-17T12:56:29.645Z,3.00
2018-04-17T12:58:55.545Z,2.70
2018-04-17T13:01:21.409Z,3.50
2018-04-17T13:03:47.233Z,3.13
2018-04-17T13:06:13.144Z,4.03
2018-04-17T13:08:39.028Z,3.83
2018-04-17T13:11:04.919Z,3.40
2018-04-17T13:13:30.784Z,4.10
2018-04-17T13:15:56.674Z,4.30
2018-04-17T13:18:22.564Z,3.30
2018-04-17T13:20:48.456Z,3.93
2018-04-17T13:23:14.344Z,3.87
2018-04-17T13:25:40.232Z,3.90
2018-04-17T13:28:06.117Z,4.10
2018-04-17T13:30:31.964Z,3.90
2018-04-17T13:32:57.817Z,4.17
2018-04-17T13:35:23.698Z,4.00
2018-04-17T13:37:49.562Z,3.90
2018-04-17T13:40:15.460Z,3.40
2018-04-17T13:42:41.328Z,3.20
2018-04-17T13:45:07.185Z,3.87
2018-04-17T13:47:33.041Z,3.40
2018-04-17T13:49:58.889Z,2.80
2018-04-17T13:52:24.745Z,2.80
2018-04-17T13:54:50.610Z,2.50
2018-04-17T13:57:16.450Z,2.70
2018-04-17T13:59:42.336Z,2.60
2018-04-17T14:02:08.204Z,2.77
2018-04-17T14:04:34.081Z,2.93
2018-04-17T14:06:59.966Z,2.50
2018-04-17T14:09:25.865Z,2.47
2018-04-17T14:11:51.716Z,2.60
2018-04-17T14:14:17.561Z,2.47
2018-04-17T14:16:43.436Z,2.47
2018-04-17T14:19:09.329Z,2.60
2018-04-17T14:21:35.216Z,2.10
2018-04-17T14:24:01.062Z,2.50
2018-04-17T14:26:26.932Z,2.90
2018-04-17T14:28:52.809Z,2.67
2018-04-17T14:31:18.687Z,2.60
2018-04-17T14:33:44.577Z,2.07
2018-04-17T14:36:10.430Z,2.13
2018-04-17T14:38:36.352Z,2.60
2018-04-17T14:41:02.223Z,2.17
2018-04-17T14:43:28.237Z,2.73
2018-04-17T14:45:54.030Z,2.97
2018-04-17T14:48:19.919Z,2.40
2018-04-17T14:50:45.794Z,2.47
2018-04-17T14:53:11.901Z,2.70
2018-04-17T14:55:37.789Z,2.67
2018-04-17T14:58:03.674Z,3.03
2018-04-17T15:00:29.517Z,2.77
2018-04-17T15:02:56.172Z,2.83
2018-04-17T15:05:22.012Z,2.37
2018-04-17T15:07:48.107Z,2.63
2018-04-17T15:10:13.958Z,2.83
2018-04-17T15:12:39.815Z,3.00
2018-04-17T15:15:05.704Z,2.67
2018-04-17T15:17:31.613Z,1.90
2018-04-17T15:19:57.457Z,2.30
2018-04-17T15:22:23.440Z,2.50
2018-04-17T15:24:49.302Z,2.40
2018-04-17T15:27:15.160Z,2.57
2018-04-17T15:29:41.069Z,2.30
2018-04-17T15:32:06.982Z,2.23
2018-04-17T15:34:32.877Z,2.20
2018-04-17T15:36:58.759Z,2.87
2018-04-17T15:39:24.672Z,2.40
2018-04-17T15:41:50.569Z,2.53
2018-04-17T15:44:16.434Z,2.27
2018-04-17T15:46:42.313Z,2.43
2018-04-17T15:49:08.267Z,2.40
2018-04-17T15:51:34.198Z,2.60
2018-04-17T15:54:00.046Z,2.30
2018-04-17T15:56:25.931Z,2.60
2018-04-17T15:58:51.836Z,2.60
2018-04-17T16:01:17.692Z,3.60
2018-04-17T16:03:43.629Z,3.07
2018-04-17T16:06:09.466Z,3.50
2018-04-17T16:08:35.356Z,2.73
2018-04-17T16:11:01.200Z,2.60
2018-04-17T16:13:27.131Z,2.70
2018-04-17T16:15:52.993Z,3.03
2018-04-17T16:18:18.894Z,3.07
2018-04-17T16:20:44.753Z,2.77
2018-04-17T16:23:10.605Z,2.90
2018-04-17T16:25:36.498Z,2.73
2018-04-17T16:28:02.398Z,3.20
2018-04-17T16:30:28.335Z,3.23
2018-04-17T16:32:54.186Z,3.10
2018-04-17T16:35:20.069Z,3.07
2018-04-17T16:37:45.965Z,2.90
2018-04-17T16:40:11.864Z,3.43
2018-04-17T16:42:38.081Z,3.07
2018-04-17T16:45:03.990Z,2.73
2018-04-17T16:47:29.863Z,3.10
2018-04-17T16:49:55.732Z,2.90
2018-04-17T16:52:21.633Z,3.00
2018-04-17T16:54:47.546Z,3.20
2018-04-17T16:57:13.390Z,3.37
2018-04-17T16:59:39.253Z,3.10
2018-04-17T17:02:05.115Z,3.03
2018-04-17T17:04:31.035Z,2.90
2018-04-17T17:06:56.924Z,3.40
2018-04-17T17:09:22.810Z,2.97
2018-04-17T17:11:48.680Z,2.57
2018-04-17T17:14:14.527Z,2.90
2018-04-17T17:16:40.402Z,2.70
2018-04-17T17:19:06.286Z,2.63
2018-04-17T17:21:32.192Z,2.93
2018-04-17T17:23:58.024Z,3.20
2018-04-17T17:26:24.075Z,3.40
2018-04-17T17:28:49.908Z,2.90
2018-04-17T17:31:15.785Z,3.10
2018-04-17T17:33:41.677Z,3.10
2018-04-17T17:36:07.556Z,2.57
2018-04-17T17:38:33.461Z,2.93
2018-04-17T17:40:59.337Z,2.27
2018-04-17T17:43:25.214Z,2.80
2018-04-17T17:45:51.094Z,2.50
2018-04-17T17:48:16.959Z,2.50
2018-04-17T17:50:42.865Z,3.13
2018-04-17T17:53:08.802Z,2.47
2018-04-17T17:55:34.695Z,2.63
2018-04-17T17:58:00.580Z,2.70
2018-04-17T18:00:26.465Z,2.50
2018-04-17T18:02:52.365Z,3.30
2018-04-17T18:05:18.286Z,3.47
2018-04-17T18:07:44.171Z,4.20
2018-04-17T18:10:10.017Z,3.80
2018-04-17T18:12:35.908Z,3.70
2018-04-17T18:15:01.799Z,4.30
2018-04-17T18:17:27.680Z,3.57
2018-04-17T18:19:53.557Z,4.07
2018-04-17T18:22:19.425Z,5.20
2018-04-17T18:24:45.304Z,6.50
2018-04-17T18:27:11.173Z,6.80
2018-04-17T18:29:37.073Z,7.40
2018-04-17T18:32:03.001Z,7.00
2018-04-17T18:34:28.849Z,7.83
2018-04-17T18:36:54.752Z,7.37
2018-04-17T18:39:20.641Z,5.77
2018-04-17T18:41:46.546Z,5.27
2018-04-17T18:44:12.429Z,4.47
2018-04-17T18:46:38.280Z,5.60
2018-04-17T18:49:04.133Z,5.30
2018-04-17T18:51:30.005Z,4.10
2018-04-17T18:53:55.877Z,3.93
2018-04-17T18:56:21.746Z,4.63
2018-04-17T18:58:47.694Z,3.97
2018-04-17T19:01:13.558Z,4.67
2018-04-17T19:03:39.425Z,3.90
2018-04-17T19:06:05.334Z,4.20
2018-04-17T19:08:31.216Z,4.40
2018-04-17T19:10:57.098Z,4.80
2018-04-17T19:13:22.953Z,3.77
2018-04-17T19:15:48.840Z,4.17
2018-04-17T19:18:14.718Z,4.70
2018-04-17T19:20:40.598Z,5.40
2018-04-17T19:23:06.458Z,4.27
2018-04-17T19:25:32.360Z,4.50
2018-04-17T19:27:58.225Z,5.93
2018-04-17T19:30:24.089Z,7.63
2018-04-17T19:32:50.093Z,7.90
2018-04-17T19:35:16.033Z,5.87
2018-04-17T19:37:41.893Z,6.50
2018-04-17T19:40:07.786Z,5.40
2018-04-17T19:42:33.685Z,4.37
2018-04-17T19:44:59.686Z,4.60
2018-04-17T19:47:25.565Z,4.03
2018-04-17T19:49:51.452Z,3.97
2018-04-17T19:52:17.341Z,3.90
2018-04-17T19:54:43.243Z,3.73
2018-04-17T19:57:09.194Z,4.37
2018-04-17T19:59:35.005Z,4.67
2018-04-17T20:02:00.849Z,3.60
2018-04-17T20:04:26.708Z,4.90
2018-04-17T20:06:52.574Z,4.43
2018-04-17T20:09:18.514Z,5.60
2018-04-17T20:11:44.355Z,4.23
2018-04-17T20:14:10.323Z,4.30
2018-04-17T20:16:36.222Z,4.67
2018-04-17T20:19:02.077Z,4.20
2018-04-17T20:21:27.939Z,5.57
2018-04-17T20:23:53.802Z,5.13
2018-04-17T20:26:19.666Z,5.83
2018-04-17T20:28:45.552Z,5.20
2018-04-17T20:31:11.377Z,4.30
2018-04-17T20:33:37.250Z,4.47
2018-04-17T20:36:03.151Z,4.60
2018-04-17T20:38:29.067Z,5.33
2018-04-17T20:40:54.930Z,5.30
2018-04-17T20:43:20.844Z,5.40
2018-04-17T20:45:46.786Z,6.40
2018-04-17T20:48:12.717Z,7.70
2018-04-17T20:50:38.676Z,6.40
2018-04-17T20:53:04.615Z,9.20
2018-04-17T20:55:30.555Z,10.63
2018-04-17T20:57:56.458Z,8.87
2018-04-17T21:00:22.430Z,8.90
2018-04-17T21:02:48.335Z,8.80
2018-04-17T21:05:14.196Z,9.10
2018-04-17T21:07:40.056Z,10.20
2018-04-17T21:10:05.995Z,8.77
2018-04-17T21:12:31.893Z,8.40
2018-04-17T21:14:57.761Z,7.73
2018-04-17T21:17:23.672Z,5.97
2018-04-17T21:19:49.568Z,6.47
2018-04-17T21:22:15.480Z,6.43
2018-04-17T21:24:41.377Z,6.27
2018-04-17T21:27:07.281Z,7.13
2018-04-17T21:29:33.153Z,6.30
2018-04-17T21:31:59.003Z,6.67
2018-04-17T21:34:24.889Z,8.00
2018-04-17T21:36:50.749Z,7.13
2018-04-17T21:39:16.711Z,7.00
2018-04-17T21:41:42.588Z,7.17
2018-04-17T21:44:08.461Z,7.30
2018-04-17T21:46:34.389Z,5.90
2018-04-17T21:49:00.269Z,7.20
2018-04-17T21:51:26.172Z,6.63
2018-04-17T21:53:52.034Z,6.67
2018-04-17T21:56:17.921Z,7.43
2018-04-17T21:58:43.833Z,6.73
2018-04-17T22:01:09.674Z,7.07
2018-04-17T22:03:35.416Z,6.60
2018-04-17T22:06:01.280Z,6.80
2018-04-17T22:08:27.125Z,6.80
2018-04-17T22:10:53.000Z,5.97
2018-04-17T22:13:18.874Z,7.73
2018-04-17T22:15:44.781Z,8.17
2018-04-17T22:18:10.681Z,6.97
2018-04-17T22:20:36.626Z,7.80
2018-04-17T22:23:02.535Z,6.00
2018-04-17T22:25:28.460Z,6.97
2018-04-17T22:27:54.320Z,6.40
2018-04-17T22:30:20.170Z,6.70
2018-04-17T22:32:46.077Z,6.60
2018-04-17T22:35:11.955Z,5.60
2018-04-17T22:37:37.861Z,5.03
2018-04-17T22:40:03.785Z,7.07
2018-04-17T22:42:29.728Z,5.73
2018-04-17T22:44:55.617Z,6.40
2018-04-17T22:47:21.518Z,6.83
2018-04-17T22:49:47.445Z,5.93
2018-04-17T22:52:13.321Z,6.27
2018-04-17T22:54:39.242Z,5.80
2018-04-17T22:57:05.140Z,7.00
2018-04-17T22:59:31.017Z,6.37
2018-04-17T23:01:56.900Z,6.20
2018-04-17T23:04:22.778Z,6.30
2018-04-17T23:06:48.681Z,6.10
2018-04-17T23:09:14.545Z,5.90
2018-04-17T23:11:40.483Z,6.57
2018-04-17T23:14:06.357Z,6.53
2018-04-17T23:16:32.228Z,7.47
2018-04-17T23:18:58.102Z,7.40
2018-04-17T23:21:23.952Z,7.00
2018-04-17T23:23:49.842Z,5.20
2018-04-17T23:26:15.702Z,7.17
2018-04-17T23:28:41.592Z,6.10
2018-04-17T23:31:07.472Z,6.07
2018-04-17T23:33:33.313Z,6.37
2018-04-17T23:35:59.197Z,8.20
2018-04-17T23:38:25.049Z,5.87
2018-04-17T23:40:50.957Z,6.40
2018-04-17T23:43:16.844Z,7.43
2018-04-17T23:45:42.724Z,6.03
2018-04-17T23:48:08.609Z,6.50
2018-04-17T23:50:34.468Z,6.63
2018-04-17T23:53:00.361Z,6.70
2018-04-17T23:55:26.205Z,6.20
2018-04-17T23:57:52.082Z,6.57
